Hlavní strana
METAR-TAF:

METAR-TAF

Letiště :

Mezinárodní letiště Oděsa

Oděsa, Ukrajina

zeměpisná šířka: 46-26N, zeměpisná délka: 030-46E, výška: 42 m

Aktuální stav počasí

Zpráva byla vytvořena před 19 minutami, v 04:00 UTC
Severovýchodní vítr 10 kt
Teplota 26°C
Vlhkost vzduchu 45%
Tlak 1017 hPa
Viditelnost 10 km a více
Žádná oblačnost pod 1500 m, nevyskytují se cumulonimby.

METAR: UKOO 070400Z 04005MPS CAVOK 26/13 Q1017 R34/090060 NOSIG

Čas: 07:19 (04:19 UTC)

Předpověď počasí

Zpráva byla vytvořena před 5 hodinami a 16 minutami, v 23:03 UTC
Předpověď platná od 07 v 00 UTC do 07 v 24 UTC
Severovýchodní vítr 12 kt s nárazy do 23 kt
Viditelnost 10 km a více
Žádná oblačnost pod 1500 m, nevyskytují se cumulonimby.
Změna
od 07 v 12 UTC do 07 v 13 UTC
Východoseverovýchodní vítr 6 kt

TAF: UKOO 062303Z 0700/0724 05006G12MPS CAVOK TX33/0712Z TN22/0702Z BECMG 0712/0713 07003MPS

Stav a předpovědi počasí z více než 4 000 letišť (zprávy METAR a TAF).

Červené a žluté tečky na mapě představují dostupné meteorologické stanice.

Když kurzor umístíte na tečku, zobrazí se název stanice.

Pak kliknutím zobrazíte stav a předpověď počasí.

Chcete-li změnit mapu, kliknutím na zelené tlačítko se znaménkem +mapu přiblížíte, kliknutím na zelené tlačítko se znaménkem – mapu oddálíte a kliknutím na zelené šipky přejdete na sousední mapy.


METAR-TAF: